Time;durP1;ratioP1;P1;durP2;ratioP2;P2;SDS_P1;SDS_P2;PMS_P1;PMS_P2;Temp;Humidity;BMP_temperature;BMP_pressure;BME280_temperature;BME280_humidity;BME280_pressure;Samples;Min_cycle;Max_cycle;Signal;HPM_P1;HPM_P2
2023/10/03 00:01:23;;;;;;;26.00;15.23;;;;;;;;;;6153502;23;20682;-66
2023/10/03 00:03:52;;;;;;;31.47;15.97;;;;;;;;;;6152046;23;20744;-66
2023/10/03 00:06:21;;;;;;;31.63;15.97;;;;;;;;;;6153669;23;20664;-66
2023/10/03 00:08:49;;;;;;;23.97;14.43;;;;;;;;;;6154866;23;21012;-65
2023/10/03 00:11:18;;;;;;;32.30;16.80;;;;;;;;;;6154051;23;20665;-66
2023/10/03 00:13:49;;;;;;;31.30;16.73;;;;;;;;;;6208879;23;20699;-66
2023/10/03 00:16:18;;;;;;;27.97;15.50;;;;;;;;;;6237513;23;20606;-66
2023/10/03 00:18:46;;;;;;;35.63;15.50;;;;;;;;;;6213745;23;20702;-66
2023/10/03 00:21:14;;;;;;;27.23;15.17;;;;;;;;;;6214494;23;20625;-66
2023/10/03 00:23:43;;;;;;;28.90;16.00;;;;;;;;;;6237802;23;20785;-66
2023/10/03 00:26:16;;;;;;;25.60;15.13;;;;;;;;;;6213718;23;20621;-66
2023/10/03 00:28:45;;;;;;;32.83;15.70;;;;;;;;;;6188005;23;20619;-65
2023/10/03 00:31:15;;;;;;;29.40;17.17;;;;;;;;;;6213939;23;21138;-66
2023/10/03 00:33:43;;;;;;;32.23;17.57;;;;;;;;;;6237392;23;20724;-66
2023/10/03 00:36:17;;;;;;;28.93;15.77;;;;;;;;;;6162300;23;20947;-66
2023/10/03 00:38:45;;;;;;;30.97;17.40;;;;;;;;;;6214170;23;20623;-65
2023/10/03 00:41:14;;;;;;;29.40;17.83;;;;;;;;;;6213771;23;20722;-66
2023/10/03 00:43:52;;;;;;;27.50;15.20;;;;;;;;;;6213994;23;20659;-66
2023/10/03 00:46:22;;;;;;;24.73;14.00;;;;;;;;;;6214178;23;20614;-65
2023/10/03 00:48:50;;;;;;;28.57;14.97;;;;;;;;;;6213482;23;20629;-66
2023/10/03 00:51:20;;;;;;;31.03;15.20;;;;;;;;;;6187270;23;20720;-65
2023/10/03 00:53:51;;;;;;;25.30;14.80;;;;;;;;;;6213731;23;20669;-65
2023/10/03 00:56:20;;;;;;;27.33;15.70;;;;;;;;;;6187581;23;20611;-65
2023/10/03 00:58:48;;;;;;;27.47;16.17;;;;;;;;;;6213939;23;20983;-65
2023/10/03 01:01:17;;;;;;;28.43;14.77;;;;;;;;;;6218259;23;20664;-65
2023/10/03 01:03:49;;;;;;;25.80;16.20;;;;;;;;;;6222556;23;20611;-65
2023/10/03 01:06:18;;;;;;;33.20;17.17;;;;;;;;;;6222911;23;20637;-65
2023/10/03 01:08:47;;;;;;;29.80;15.63;;;;;;;;;;6173011;23;21129;-65
2023/10/03 01:11:18;;;;;;;28.20;16.07;;;;;;;;;;6247562;23;20591;-65
2023/10/03 01:13:49;;;;;;;27.53;16.30;;;;;;;;;;6223449;23;20620;-65
2023/10/03 01:16:26;;;;;;;30.53;15.03;;;;;;;;;;6224433;23;20911;-65
2023/10/03 01:18:59;;;;;;;23.70;14.17;;;;;;;;;;6224075;23;20575;-64
2023/10/03 01:21:28;;;;;;;24.53;14.57;;;;;;;;;;6224595;23;21134;-65
2023/10/03 01:23:59;;;;;;;33.97;15.43;;;;;;;;;;6223557;23;20603;-65
2023/10/03 01:26:27;;;;;;;26.17;14.70;;;;;;;;;;6224672;23;20571;-65
2023/10/03 01:28:55;;;;;;;31.23;13.80;;;;;;;;;;6224542;23;20575;-65
2023/10/03 01:31:24;;;;;;;28.30;14.40;;;;;;;;;;6225137;23;20593;-65
2023/10/03 01:33:52;;;;;;;26.13;14.67;;;;;;;;;;6246884;23;20650;-65
2023/10/03 01:36:20;;;;;;;31.30;15.30;;;;;;;;;;6224491;23;20610;-65
2023/10/03 01:38:49;;;;;;;29.40;15.63;;;;;;;;;;6248355;23;20566;-65
2023/10/03 01:41:18;;;;;;;30.20;14.23;;;;;;;;;;6224208;23;20587;-65
2023/10/03 01:43:46;;;;;;;27.37;13.93;;;;;;;;;;6222330;23;20566;-65
2023/10/03 01:46:17;;;;;;;25.20;14.80;;;;;;;;;;6197684;23;20603;-64
2023/10/03 01:48:45;;;;;;;23.70;14.50;;;;;;;;;;6224459;23;20572;-64
2023/10/03 01:51:15;;;;;;;28.57;14.67;;;;;;;;;;6224190;23;20578;-66
2023/10/03 01:53:44;;;;;;;25.83;13.77;;;;;;;;;;6223923;23;20581;-65
2023/10/03 01:56:12;;;;;;;21.30;13.33;;;;;;;;;;6197892;23;20643;-66
2023/10/03 01:58:42;;;;;;;29.10;14.37;;;;;;;;;;6197740;23;20606;-65
2023/10/03 02:01:13;;;;;;;24.70;13.70;;;;;;;;;;6196440;23;20567;-66
2023/10/03 02:03:42;;;;;;;28.40;15.30;;;;;;;;;;6195706;23;20588;-65
2023/10/03 02:06:10;;;;;;;31.17;15.10;;;;;;;;;;6222506;23;20612;-65
2023/10/03 02:08:39;;;;;;;30.83;15.87;;;;;;;;;;6197015;23;20673;-66
2023/10/03 02:11:07;;;;;;;29.27;16.00;;;;;;;;;;6196740;23;21125;-65
2023/10/03 02:13:38;;;;;;;29.83;15.53;;;;;;;;;;6223210;23;20641;-65
2023/10/03 02:16:10;;;;;;;25.00;14.30;;;;;;;;;;6247710;23;20653;-66
2023/10/03 02:18:40;;;;;;;21.10;13.13;;;;;;;;;;6197927;23;20608;-65
2023/10/03 02:21:09;;;;;;;24.23;13.23;;;;;;;;;;6223947;23;20665;-65
2023/10/03 02:23:37;;;;;;;26.53;14.37;;;;;;;;;;6197774;23;20574;-65
2023/10/03 02:26:10;;;;;;;22.27;13.07;;;;;;;;;;6173102;23;20581;-64
2023/10/03 02:28:43;;;;;;;28.50;15.47;;;;;;;;;;6224350;23;20538;-65
2023/10/03 02:31:15;;;;;;;27.40;13.87;;;;;;;;;;6226020;23;20563;-66
2023/10/03 02:33:44;;;;;;;29.30;14.30;;;;;;;;;;6226181;23;20534;-65
2023/10/03 02:36:14;;;;;;;27.80;14.73;;;;;;;;;;6225440;23;20593;-65
2023/10/03 02:38:43;;;;;;;30.13;15.67;;;;;;;;;;6225174;23;20534;-65
2023/10/03 02:41:12;;;;;;;29.80;15.77;;;;;;;;;;6225009;23;20578;-65
2023/10/03 02:43:43;;;;;;;25.87;14.60;;;;;;;;;;6174892;23;20570;-65
2023/10/03 02:46:15;;;;;;;31.53;16.33;;;;;;;;;;6199499;23;20530;-65
2023/10/03 02:48:48;;;;;;;29.23;17.00;;;;;;;;;;6199463;23;20574;-64
2023/10/03 02:51:17;;;;;;;30.17;18.37;;;;;;;;;;6199546;23;20574;-65
2023/10/03 02:53:45;;;;;;;27.03;15.87;;;;;;;;;;6198979;23;21227;-65
2023/10/03 02:56:14;;;;;;;37.17;18.53;;;;;;;;;;6226075;23;20606;-65
2023/10/03 02:58:42;;;;;;;33.17;18.70;;;;;;;;;;6225478;23;20581;-65
2023/10/03 03:01:11;;;;;;;34.13;18.63;;;;;;;;;;6174633;23;20603;-65
2023/10/03 03:03:42;;;;;;;29.13;16.97;;;;;;;;;;6224022;23;20929;-65
2023/10/03 03:06:14;;;;;;;28.13;16.67;;;;;;;;;;6197981;23;20557;-65
2023/10/03 03:08:44;;;;;;;31.13;17.80;;;;;;;;;;6198844;23;20620;-65
2023/10/03 03:11:15;;;;;;;34.10;15.90;;;;;;;;;;6199955;23;20592;-65
2023/10/03 03:13:43;;;;;;;32.33;17.30;;;;;;;;;;6224334;23;20630;-65
2023/10/03 03:16:14;;;;;;;28.73;17.70;;;;;;;;;;6225692;23;20621;-65
2023/10/03 03:18:46;;;;;;;27.83;16.70;;;;;;;;;;6225577;23;20527;-64
2023/10/03 03:21:15;;;;;;;29.63;15.60;;;;;;;;;;6199955;23;20572;-65
2023/10/03 03:23:55;;;;;;;27.80;15.83;;;;;;;;;;6225871;23;20592;-65
2023/10/03 03:26:35;;;;;;;25.73;16.20;;;;;;;;;;6225555;23;20538;-65
2023/10/03 03:29:05;;;;;;;31.70;14.20;;;;;;;;;;6225541;23;20583;-65
2023/10/03 03:31:34;;;;;;;28.87;15.40;;;;;;;;;;6225829;23;20571;-65
2023/10/03 03:34:04;;;;;;;28.10;15.37;;;;;;;;;;6224949;23;21118;-64
2023/10/03 03:36:34;;;;;;;25.40;14.80;;;;;;;;;;6226234;23;20633;-64
2023/10/03 03:39:05;;;;;;;28.60;15.80;;;;;;;;;;6226223;23;20603;-65
2023/10/03 03:41:34;;;;;;;25.67;14.20;;;;;;;;;;6249013;23;20579;-65
2023/10/03 03:44:04;;;;;;;22.53;13.70;;;;;;;;;;6225598;23;20595;-64
2023/10/03 03:46:32;;;;;;;24.77;15.00;;;;;;;;;;6249855;23;20610;-64
2023/10/03 03:49:04;;;;;;;26.57;14.47;;;;;;;;;;6225645;23;20626;-64
2023/10/03 03:51:34;;;;;;;28.67;16.20;;;;;;;;;;6198818;23;20633;-64
2023/10/03 03:54:04;;;;;;;28.90;14.87;;;;;;;;;;6225062;23;20587;-65
2023/10/03 03:56:33;;;;;;;29.63;13.87;;;;;;;;;;6224930;23;20987;-65
2023/10/03 03:59:03;;;;;;;23.70;14.17;;;;;;;;;;6225046;23;20611;-65
2023/10/03 04:01:33;;;;;;;22.37;13.40;;;;;;;;;;6224187;23;20642;-65
2023/10/03 04:04:03;;;;;;;26.13;14.10;;;;;;;;;;6197686;23;20626;-65
2023/10/03 04:06:32;;;;;;;23.70;14.03;;;;;;;;;;6224297;23;20599;-65
2023/10/03 04:09:01;;;;;;;22.30;12.90;;;;;;;;;;6197764;23;20610;-65
2023/10/03 04:11:29;;;;;;;22.27;14.53;;;;;;;;;;6247969;23;20608;-65
2023/10/03 04:13:59;;;;;;;28.03;14.83;;;;;;;;;;6138881;23;20613;-66
2023/10/03 04:16:28;;;;;;;25.17;14.67;;;;;;;;;;6164778;23;20652;-65
2023/10/03 04:18:56;;;;;;;36.77;15.10;;;;;;;;;;6165520;23;20768;-66
2023/10/03 04:21:27;;;;;;;25.50;15.00;;;;;;;;;;6165082;23;20601;-65
2023/10/03 04:23:56;;;;;;;21.33;12.60;;;;;;;;;;6164940;23;20566;-65
2023/10/03 04:26:26;;;;;;;22.60;13.90;;;;;;;;;;6164008;23;20632;-64
2023/10/03 04:28:54;;;;;;;21.20;12.77;;;;;;;;;;6164963;23;20611;-65
2023/10/03 04:31:22;;;;;;;21.90;12.90;;;;;;;;;;6164271;23;20613;-65
2023/10/03 04:33:50;;;;;;;21.30;11.70;;;;;;;;;;6164687;23;20565;-65
2023/10/03 04:36:24;;;;;;;20.60;12.57;;;;;;;;;;6165045;23;21067;-65
2023/10/03 04:38:53;;;;;;;18.63;12.77;;;;;;;;;;6164878;23;20564;-65
2023/10/03 04:41:21;;;;;;;18.30;11.70;;;;;;;;;;6163653;23;20605;-65
2023/10/03 04:43:51;;;;;;;21.83;12.70;;;;;;;;;;6164861;23;20596;-65
2023/10/03 04:46:19;;;;;;;21.83;12.27;;;;;;;;;;6165000;23;20571;-65
2023/10/03 04:48:49;;;;;;;22.03;11.80;;;;;;;;;;6163391;23;21214;-65
2023/10/03 04:51:17;;;;;;;16.07;11.00;;;;;;;;;;6165065;23;20564;-65
2023/10/03 04:53:46;;;;;;;16.57;11.60;;;;;;;;;;6163895;23;20578;-65
2023/10/03 04:56:14;;;;;;;23.53;11.57;;;;;;;;;;6163137;23;20625;-65
2023/10/03 04:58:42;;;;;;;18.60;11.60;;;;;;;;;;6164803;23;20922;-66
2023/10/03 05:01:13;;;;;;;14.47;10.17;;;;;;;;;;6187718;23;20610;-64
2023/10/03 05:03:41;;;;;;;22.93;11.63;;;;;;;;;;6163493;23;20564;-65
2023/10/03 05:06:11;;;;;;;16.37;11.20;;;;;;;;;;6163807;23;21140;-65
2023/10/03 05:08:39;;;;;;;24.10;11.80;;;;;;;;;;6163953;23;20925;-65
2023/10/03 05:11:08;;;;;;;19.30;11.30;;;;;;;;;;6164461;23;20641;-65
2023/10/03 05:13:38;;;;;;;19.07;10.97;;;;;;;;;;6213607;23;21065;-66
2023/10/03 05:16:07;;;;;;;20.37;11.00;;;;;;;;;;6224063;23;21210;-66
2023/10/03 05:18:39;;;;;;;19.23;10.90;;;;;;;;;;6223513;23;20603;-65
2023/10/03 05:21:07;;;;;;;18.63;11.23;;;;;;;;;;6224965;23;20572;-66
2023/10/03 05:23:36;;;;;;;16.20;10.87;;;;;;;;;;6224191;23;20622;-65
2023/10/03 05:26:04;;;;;;;17.43;10.40;;;;;;;;;;6224871;23;20599;-65
2023/10/03 05:28:33;;;;;;;14.60;10.63;;;;;;;;;;6197369;23;20969;-65
2023/10/03 05:31:02;;;;;;;17.13;11.60;;;;;;;;;;6224280;23;20603;-65
2023/10/03 05:33:30;;;;;;;16.47;13.23;;;;;;;;;;6224084;23;20607;-66
2023/10/03 05:36:01;;;;;;;23.27;15.70;;;;;;;;;;6223734;23;20635;-65
2023/10/03 05:38:29;;;;;;;24.03;14.37;;;;;;;;;;6224705;23;20591;-65
2023/10/03 05:40:58;;;;;;;18.77;11.00;;;;;;;;;;6223967;23;20615;-65
2023/10/03 05:43:26;;;;;;;18.63;11.23;;;;;;;;;;6224316;23;20914;-65
2023/10/03 05:45:54;;;;;;;16.60;10.73;;;;;;;;;;6223996;23;20630;-65
2023/10/03 05:48:25;;;;;;;14.90;10.83;;;;;;;;;;6223175;23;20600;-65
2023/10/03 05:50:55;;;;;;;17.37;11.60;;;;;;;;;;6224112;23;20563;-64
2023/10/03 05:53:25;;;;;;;16.73;11.27;;;;;;;;;;6223879;23;21000;-65
2023/10/03 05:55:53;;;;;;;17.70;12.27;;;;;;;;;;6197235;23;20588;-64
2023/10/03 05:58:21;;;;;;;12.17;10.50;;;;;;;;;;6224176;23;20610;-65
2023/10/03 06:00:50;;;;;;;15.93;10.03;;;;;;;;;;6223276;23;20602;-65
2023/10/03 06:03:18;;;;;;;16.97;10.27;;;;;;;;;;6222058;23;20607;-65
2023/10/03 06:05:47;;;;;;;16.73;11.70;;;;;;;;;;6223200;23;20669;-64
2023/10/03 06:08:15;;;;;;;14.20;11.00;;;;;;;;;;6222708;23;20611;-65
2023/10/03 06:10:45;;;;;;;15.17;11.53;;;;;;;;;;6222989;23;20591;-65
2023/10/03 06:13:13;;;;;;;15.00;10.87;;;;;;;;;;6223416;23;20635;-65
2023/10/03 06:15:42;;;;;;;13.07;10.03;;;;;;;;;;6223802;23;20618;-65
2023/10/03 06:18:10;;;;;;;16.77;11.47;;;;;;;;;;6223940;23;20631;-65
2023/10/03 06:20:38;;;;;;;15.47;11.10;;;;;;;;;;6222600;23;20585;-66
2023/10/03 06:23:08;;;;;;;12.80;10.20;;;;;;;;;;6223343;23;20570;-66
2023/10/03 06:25:36;;;;;;;14.40;10.90;;;;;;;;;;6223031;23;20966;-65
2023/10/03 06:28:06;;;;;;;14.93;10.70;;;;;;;;;;6222977;23;20596;-65
2023/10/03 06:30:38;;;;;;;19.20;12.63;;;;;;;;;;6223461;23;20611;-65
2023/10/03 06:33:07;;;;;;;18.50;10.40;;;;;;;;;;6223230;23;20649;-65
2023/10/03 06:35:35;;;;;;;11.00;9.80;;;;;;;;;;6196604;23;20677;-65
2023/10/03 06:38:04;;;;;;;14.97;10.20;;;;;;;;;;6222010;23;20651;-65
2023/10/03 06:40:32;;;;;;;14.33;10.63;;;;;;;;;;6222965;23;20615;-65
2023/10/03 06:43:01;;;;;;;11.40;9.00;;;;;;;;;;6222662;23;20607;-65
2023/10/03 06:45:30;;;;;;;12.87;9.73;;;;;;;;;;6222484;23;20619;-65
2023/10/03 06:48:03;;;;;;;13.17;10.47;;;;;;;;;;6222468;23;21173;-65
2023/10/03 06:50:32;;;;;;;16.33;10.17;;;;;;;;;;6224960;23;20572;-65
2023/10/03 06:53:01;;;;;;;14.30;10.80;;;;;;;;;;6223483;23;21014;-64
2023/10/03 06:55:29;;;;;;;12.83;10.90;;;;;;;;;;6225141;23;20592;-65
2023/10/03 06:57:58;;;;;;;14.93;10.17;;;;;;;;;;6224669;23;21354;-65
2023/10/03 07:00:26;;;;;;;16.30;9.23;;;;;;;;;;6223495;23;20614;-65
2023/10/03 07:02:56;;;;;;;11.07;9.97;;;;;;;;;;6221842;23;20603;-65
2023/10/03 07:05:24;;;;;;;13.30;10.40;;;;;;;;;;6223531;23;20599;-65
2023/10/03 07:07:53;;;;;;;15.47;10.53;;;;;;;;;;6223415;23;20603;-65
2023/10/03 07:10:22;;;;;;;14.70;10.70;;;;;;;;;;6225000;23;20599;-65
2023/10/03 07:12:50;;;;;;;12.90;10.33;;;;;;;;;;6223664;23;20651;-65
2023/10/03 07:15:19;;;;;;;11.03;10.00;;;;;;;;;;6225872;23;21134;-65
2023/10/03 07:17:47;;;;;;;14.40;9.97;;;;;;;;;;6226019;23;20662;-65
2023/10/03 07:20:17;;;;;;;17.13;9.27;;;;;;;;;;6225708;23;20595;-66
2023/10/03 07:22:45;;;;;;;14.30;10.00;;;;;;;;;;6224570;23;20634;-65
2023/10/03 07:25:13;;;;;;;13.40;9.07;;;;;;;;;;6226411;23;20595;-65
2023/10/03 07:27:42;;;;;;;15.57;10.53;;;;;;;;;;6225281;23;20623;-65
2023/10/03 07:30:11;;;;;;;11.60;9.80;;;;;;;;;;6226184;23;20591;-65
2023/10/03 07:32:39;;;;;;;11.53;9.90;;;;;;;;;;6225788;23;20576;-63
2023/10/03 07:35:10;;;;;;;12.10;10.10;;;;;;;;;;6226270;23;20595;-65
2023/10/03 07:37:40;;;;;;;11.50;10.20;;;;;;;;;;6224880;23;20642;-65
2023/10/03 07:40:09;;;;;;;13.57;10.10;;;;;;;;;;6226371;23;20591;-65
2023/10/03 07:42:38;;;;;;;11.47;10.27;;;;;;;;;;6225658;23;20962;-66
2023/10/03 07:45:07;;;;;;;11.33;10.23;;;;;;;;;;6225929;23;20626;-66
2023/10/03 07:47:37;;;;;;;11.63;10.23;;;;;;;;;;6225488;23;20592;-65
2023/10/03 07:50:06;;;;;;;11.37;10.20;;;;;;;;;;6224937;23;21078;-63
2023/10/03 07:52:34;;;;;;;15.37;10.70;;;;;;;;;;6224707;23;20607;-63
2023/10/03 07:55:05;;;;;;;15.47;11.63;;;;;;;;;;6224322;23;20620;-64
2023/10/03 07:57:33;;;;;;;16.50;11.80;;;;;;;;;;6197965;23;20607;-64
2023/10/03 08:00:05;;;;;;;12.77;11.57;;;;;;;;;;6224422;23;20592;-64
2023/10/03 08:02:35;;;;;;;12.43;11.33;;;;;;;;;;6223132;23;20568;-64
2023/10/03 08:05:04;;;;;;;22.87;11.77;;;;;;;;;;6223296;23;20580;-65
2023/10/03 08:07:32;;;;;;;12.40;11.13;;;;;;;;;;6222752;23;20626;-67
2023/10/03 08:10:03;;;;;;;13.63;11.37;;;;;;;;;;6221804;23;20595;-64
2023/10/03 08:12:38;;;;;;;13.27;12.17;;;;;;;;;;6223912;23;20654;-64
2023/10/03 08:15:16;;;;;;;12.70;11.60;;;;;;;;;;6223049;23;20559;-65
2023/10/03 08:17:49;;;;;;;13.33;12.33;;;;;;;;;;6224905;23;20603;-64
2023/10/03 08:20:18;;;;;;;17.10;12.53;;;;;;;;;;6221198;23;20702;-65
2023/10/03 08:22:51;;;;;;;14.27;12.30;;;;;;;;;;6221408;23;20723;-66
2023/10/03 08:25:21;;;;;;;14.00;12.80;;;;;;;;;;6223081;23;20575;-65
2023/10/03 08:27:51;;;;;;;13.23;12.13;;;;;;;;;;6223921;23;20611;-65
2023/10/03 08:30:29;;;;;;;14.07;12.60;;;;;;;;;;6221997;23;20567;-65
2023/10/03 08:33:00;;;;;;;13.10;12.00;;;;;;;;;;6222785;23;20568;-66
2023/10/03 08:35:38;;;;;;;14.07;12.53;;;;;;;;;;6221768;23;20568;-66
2023/10/03 08:38:07;;;;;;;13.50;12.17;;;;;;;;;;6224416;23;20619;-66
2023/10/03 08:40:40;;;;;;;13.87;12.70;;;;;;;;;;6221902;23;20603;-65
2023/10/03 08:43:09;;;;;;;13.40;12.20;;;;;;;;;;6197305;23;20571;-65
2023/10/03 08:45:42;;;;;;;14.40;12.90;;;;;;;;;;6222291;23;20603;-66
2023/10/03 08:48:11;;;;;;;14.00;12.60;;;;;;;;;;6222793;23;20568;-65
2023/10/03 08:50:46;;;;;;;13.50;12.40;;;;;;;;;;6220845;23;21173;-65
2023/10/03 08:53:16;;;;;;;14.17;12.83;;;;;;;;;;6221415;23;20574;-66
2023/10/03 08:55:45;;;;;;;15.13;13.53;;;;;;;;;;6221193;23;20607;-66
2023/10/03 08:58:15;;;;;;;13.00;11.90;;;;;;;;;;6220892;23;20639;-66
2023/10/03 09:00:49;;;;;;;13.73;12.53;;;;;;;;;;6221234;23;20584;-66
2023/10/03 09:03:18;;;;;;;14.63;13.17;;;;;;;;;;6221269;23;20611;-66
2023/10/03 09:05:47;;;;;;;15.97;13.20;;;;;;;;;;6220943;23;20564;-66
2023/10/03 09:08:16;;;;;;;14.47;12.90;;;;;;;;;;6221412;23;20634;-66
2023/10/03 09:10:52;;;;;;;14.17;13.00;;;;;;;;;;6222951;23;20587;-66
2023/10/03 09:13:24;;;;;;;14.50;13.30;;;;;;;;;;6220417;23;20665;-65
2023/10/03 09:15:59;;;;;;;15.03;13.53;;;;;;;;;;6195914;23;20571;-66
2023/10/03 09:18:30;;;;;;;16.60;14.27;;;;;;;;;;6221863;23;20630;-66
2023/10/03 09:21:00;;;;;;;15.03;12.90;;;;;;;;;;6222048;23;20568;-66
2023/10/03 09:23:38;;;;;;;13.77;12.67;;;;;;;;;;6221743;23;20615;-66
2023/10/03 09:26:06;;;;;;;15.20;12.40;;;;;;;;;;6196120;23;20570;-65
2023/10/03 09:28:36;;;;;;;14.13;13.03;;;;;;;;;;6222002;23;20596;-64
2023/10/03 09:31:08;;;;;;;13.53;12.40;;;;;;;;;;6196192;23;20614;-64
2023/10/03 09:33:39;;;;;;;15.60;14.03;;;;;;;;;;6195473;23;21343;-65
2023/10/03 09:36:08;;;;;;;14.17;12.97;;;;;;;;;;6222635;23;20576;-64
2023/10/03 09:38:45;;;;;;;13.13;12.10;;;;;;;;;;6221569;23;20709;-65
2023/10/03 09:41:21;;;;;;;14.20;13.20;;;;;;;;;;6246827;23;20575;-65
2023/10/03 09:43:53;;;;;;;13.93;12.73;;;;;;;;;;6220269;23;20627;-65
2023/10/03 09:46:26;;;;;;;20.20;13.93;;;;;;;;;;6221345;23;20573;-65
2023/10/03 09:48:55;;;;;;;14.53;13.00;;;;;;;;;;6221730;23;20567;-65
2023/10/03 09:51:36;;;;;;;13.73;12.63;;;;;;;;;;6221801;23;20669;-64
2023/10/03 09:54:10;;;;;;;13.40;12.40;;;;;;;;;;6221828;23;20568;-65
2023/10/03 09:56:40;;;;;;;13.03;11.90;;;;;;;;;;6220485;23;20579;-66
2023/10/03 09:59:17;;;;;;;13.37;12.20;;;;;;;;;;6221352;23;20666;-64
2023/10/03 10:01:46;;;;;;;13.90;12.80;;;;;;;;;;6220598;23;20569;-65
2023/10/03 10:04:16;;;;;;;14.10;12.70;;;;;;;;;;6220623;23;20629;-65
2023/10/03 10:06:48;;;;;;;17.37;12.30;;;;;;;;;;6220584;23;20592;-65
2023/10/03 10:09:27;;;;;;;13.45;10.98;;;;;;;;;;6223493;23;20715;-65
2023/10/03 10:12:12;;;;;;;13.70;12.80;;;;;;;;;;6225477;23;20234;-65
2023/10/03 10:15:00;;;;;;;13.10;11.80;;;;;;;;;;6226003;23;20603;-65
2023/10/03 10:17:44;;;;;;;13.17;12.27;;;;;;;;;;6226015;23;20622;-65
2023/10/03 10:20:16;;;;;;;13.63;12.43;;;;;;;;;;6200174;23;20571;-65
2023/10/03 10:23:05;;;;;;;12.90;11.90;;;;;;;;;;6198821;23;20571;-65
2023/10/03 10:25:38;;;;;;;13.73;12.43;;;;;;;;;;6226070;23;20545;-65
2023/10/03 10:28:07;;;;;;;14.43;13.23;;;;;;;;;;6224373;23;21107;-65
2023/10/03 10:30:35;;;;;;;14.47;13.07;;;;;;;;;;6199439;23;20665;-65
2023/10/03 10:33:22;;;;;;;14.13;12.63;;;;;;;;;;6224612;23;20612;-65
2023/10/03 10:35:52;;;;;;;12.87;12.00;;;;;;;;;;6249788;23;20567;-66
2023/10/03 10:38:20;;;;;;;13.83;12.60;;;;;;;;;;6226238;23;20718;-66
2023/10/03 10:41:07;;;;;;;14.23;13.00;;;;;;;;;;6225898;23;20627;-65
2023/10/03 10:43:35;;;;;;;13.80;12.60;;;;;;;;;;6226482;23;20563;-65
2023/10/03 10:46:22;;;;;;;13.80;12.70;;;;;;;;;;6226307;23;20592;-65
2023/10/03 10:48:50;;;;;;;12.43;11.73;;;;;;;;;;6226056;23;20600;-65
2023/10/03 10:51:20;;;;;;;13.40;12.13;;;;;;;;;;6227932;23;20592;-65
2023/10/03 10:53:51;;;;;;;12.43;11.50;;;;;;;;;;6228736;23;20889;-65
2023/10/03 10:56:19;;;;;;;13.90;12.70;;;;;;;;;;6226888;23;20567;-65
2023/10/03 10:59:01;;;;;;;13.23;11.80;;;;;;;;;;6226526;23;20639;-65
2023/10/03 11:01:30;;;;;;;13.23;12.30;;;;;;;;;;6226574;23;20579;-65
2023/10/03 11:03:59;;;;;;;13.40;12.40;;;;;;;;;;6249109;23;20661;-66
2023/10/03 11:06:29;;;;;;;13.47;12.30;;;;;;;;;;6226606;23;20599;-65
2023/10/03 11:08:57;;;;;;;12.47;11.40;;;;;;;;;;6252648;23;20603;-66
2023/10/03 11:11:35;;;;;;;13.90;12.53;;;;;;;;;;6201669;23;20600;-65
2023/10/03 11:14:03;;;;;;;14.63;12.80;;;;;;;;;;6228359;23;20551;-65
2023/10/03 11:16:31;;;;;;;13.83;12.73;;;;;;;;;;6228681;23;20622;-65
2023/10/03 11:19:02;;;;;;;14.13;12.73;;;;;;;;;;6228309;23;20709;-65
2023/10/03 11:21:33;;;;;;;13.17;12.00;;;;;;;;;;6228968;23;20591;-65
2023/10/03 11:24:18;;;;;;;13.30;12.43;;;;;;;;;;6228218;23;20572;-65
2023/10/03 11:26:47;;;;;;;13.93;13.03;;;;;;;;;;6225642;23;20598;-66
2023/10/03 11:29:16;;;;;;;13.90;12.70;;;;;;;;;;6226408;23;20579;-65
2023/10/03 11:31:45;;;;;;;13.60;12.60;;;;;;;;;;6227200;23;21218;-65
2023/10/03 11:34:29;;;;;;;15.90;14.67;;;;;;;;;;6227445;23;20634;-65
2023/10/03 11:36:59;;;;;;;14.50;13.30;;;;;;;;;;6201302;23;20566;-64
2023/10/03 11:39:28;;;;;;;14.57;13.50;;;;;;;;;;6228123;23;20639;-65
2023/10/03 11:42:00;;;;;;;13.77;12.87;;;;;;;;;;6226081;23;20610;-65
2023/10/03 11:44:29;;;;;;;13.63;12.73;;;;;;;;;;6226507;23;20575;-65
2023/10/03 11:46:57;;;;;;;14.23;13.03;;;;;;;;;;6224088;23;20591;-65
2023/10/03 11:49:26;;;;;;;14.40;13.40;;;;;;;;;;6246221;23;20599;-65
2023/10/03 11:51:56;;;;;;;14.63;13.63;;;;;;;;;;6222829;23;20673;-64
2023/10/03 11:54:26;;;;;;;14.50;13.20;;;;;;;;;;6221833;23;20598;-65
2023/10/03 11:56:56;;;;;;;13.90;12.90;;;;;;;;;;6195145;23;21089;-65
2023/10/03 11:59:25;;;;;;;14.90;13.70;;;;;;;;;;6222481;23;20607;-65
2023/10/03 12:01:59;;;;;;;13.33;12.20;;;;;;;;;;6220515;23;20606;-66
2023/10/03 12:04:29;;;;;;;13.73;12.83;;;;;;;;;;6220286;23;20601;-66
2023/10/03 12:06:58;;;;;;;14.63;13.33;;;;;;;;;;6221129;23;20595;-65
2023/10/03 12:09:27;;;;;;;14.00;13.07;;;;;;;;;;6220818;23;21595;-65
2023/10/03 12:11:56;;;;;;;13.10;12.10;;;;;;;;;;6220616;23;20639;-65
2023/10/03 12:14:24;;;;;;;13.33;12.30;;;;;;;;;;6221304;23;20574;-65
2023/10/03 12:16:52;;;;;;;15.23;12.53;;;;;;;;;;6221141;23;20933;-65
2023/10/03 12:19:21;;;;;;;14.17;13.10;;;;;;;;;;6221008;23;20728;-65
2023/10/03 12:21:49;;;;;;;13.30;12.30;;;;;;;;;;6221336;23;20650;-65
2023/10/03 12:24:18;;;;;;;14.17;13.17;;;;;;;;;;6221266;23;20993;-65
2023/10/03 12:26:48;;;;;;;14.47;13.27;;;;;;;;;;6220774;23;20599;-65
2023/10/03 12:29:16;;;;;;;15.63;13.30;;;;;;;;;;6221518;23;20647;-65
2023/10/03 12:31:44;;;;;;;13.50;12.57;;;;;;;;;;6220875;23;20600;-65
2023/10/03 12:34:12;;;;;;;14.10;13.00;;;;;;;;;;6244324;23;20604;-65
2023/10/03 12:36:41;;;;;;;14.10;12.87;;;;;;;;;;6221017;23;20611;-65
2023/10/03 12:39:11;;;;;;;14.23;13.13;;;;;;;;;;6221384;23;21002;-66
2023/10/03 12:41:39;;;;;;;13.53;12.20;;;;;;;;;;6220095;23;20614;-66
2023/10/03 12:44:09;;;;;;;13.70;12.70;;;;;;;;;;6221726;23;21122;-66
2023/10/03 12:46:37;;;;;;;14.37;13.17;;;;;;;;;;6221354;23;20603;-66
2023/10/03 12:49:07;;;;;;;14.40;13.10;;;;;;;;;;6245003;23;20612;-65
2023/10/03 12:51:35;;;;;;;13.27;12.10;;;;;;;;;;6220770;23;20599;-65
2023/10/03 12:54:04;;;;;;;13.53;12.37;;;;;;;;;;6221620;23;20599;-66
2023/10/03 12:56:33;;;;;;;15.87;13.33;;;;;;;;;;6221184;23;20606;-65
2023/10/03 12:59:02;;;;;;;14.33;13.07;;;;;;;;;;6221889;23;20635;-65
2023/10/03 13:01:31;;;;;;;13.40;12.40;;;;;;;;;;6220722;23;20906;-65
2023/10/03 13:04:00;;;;;;;13.47;12.30;;;;;;;;;;6220102;23;20599;-65
2023/10/03 13:06:28;;;;;;;13.17;11.97;;;;;;;;;;6220476;23;20603;-65
2023/10/03 13:08:56;;;;;;;15.37;12.17;;;;;;;;;;6222038;23;20610;-66
2023/10/03 13:11:24;;;;;;;13.10;11.20;;;;;;;;;;6221446;23;20814;-65
2023/10/03 13:13:54;;;;;;;12.53;11.43;;;;;;;;;;6219877;23;20639;-66
2023/10/03 13:16:23;;;;;;;12.53;11.43;;;;;;;;;;6221045;23;20603;-65
2023/10/03 13:18:53;;;;;;;13.77;12.77;;;;;;;;;;6244943;23;20607;-65
2023/10/03 13:21:22;;;;;;;13.63;12.53;;;;;;;;;;6220795;23;20646;-65
2023/10/03 13:23:50;;;;;;;12.40;11.30;;;;;;;;;;6220690;23;20607;-65
2023/10/03 13:26:18;;;;;;;13.00;12.00;;;;;;;;;;6221113;23;21209;-65
2023/10/03 13:28:47;;;;;;;12.40;11.20;;;;;;;;;;6221934;23;20600;-66
2023/10/03 13:31:15;;;;;;;12.73;11.73;;;;;;;;;;6245985;23;20607;-65
2023/10/03 13:33:43;;;;;;;12.40;11.30;;;;;;;;;;6221435;23;20603;-64
2023/10/03 13:36:14;;;;;;;12.53;11.73;;;;;;;;;;6221104;23;20950;-65
2023/10/03 13:38:42;;;;;;;13.63;12.40;;;;;;;;;;6221956;23;20584;-64
2023/10/03 13:41:11;;;;;;;11.63;11.00;;;;;;;;;;6221178;23;20642;-65
2023/10/03 13:43:39;;;;;;;12.50;11.40;;;;;;;;;;6220407;23;20568;-65
2023/10/03 13:46:08;;;;;;;12.37;11.37;;;;;;;;;;6221988;23;20600;-65
2023/10/03 13:48:36;;;;;;;11.70;10.80;;;;;;;;;;6220957;23;20649;-66
2023/10/03 13:51:05;;;;;;;11.90;11.00;;;;;;;;;;6222812;23;20603;-65
2023/10/03 13:53:34;;;;;;;11.90;10.80;;;;;;;;;;6221843;23;20603;-65
2023/10/03 13:56:03;;;;;;;12.77;11.80;;;;;;;;;;6170829;23;20611;-65
2023/10/03 13:58:31;;;;;;;12.70;11.80;;;;;;;;;;6220945;23;20622;-65
2023/10/03 14:01:02;;;;;;;12.23;10.97;;;;;;;;;;6221597;23;21050;-65
2023/10/03 14:03:32;;;;;;;11.17;10.27;;;;;;;;;;6219719;23;20564;-65
2023/10/03 14:06:00;;;;;;;11.87;10.30;;;;;;;;;;6221264;23;20607;-65
2023/10/03 14:08:28;;;;;;;11.43;10.20;;;;;;;;;;6221087;23;20603;-65
2023/10/03 14:10:58;;;;;;;13.50;9.20;;;;;;;;;;6222121;23;20615;-65
2023/10/03 14:13:26;;;;;;;8.33;7.60;;;;;;;;;;6219206;23;20697;-66
2023/10/03 14:15:55;;;;;;;12.50;5.83;;;;;;;;;;6222464;23;20619;-65
2023/10/03 14:18:24;;;;;;;10.50;5.17;;;;;;;;;;6220851;23;20580;-65
2023/10/03 14:20:52;;;;;;;5.90;5.30;;;;;;;;;;6222011;23;20638;-66
2023/10/03 14:23:20;;;;;;;5.73;5.23;;;;;;;;;;6221130;23;20599;-65
2023/10/03 14:25:49;;;;;;;6.23;4.90;;;;;;;;;;6224498;23;20608;-65
2023/10/03 14:28:19;;;;;;;6.97;3.93;;;;;;;;;;6223068;23;21224;-65
2023/10/03 14:30:47;;;;;;;6.80;4.40;;;;;;;;;;6223204;23;20598;-64
2023/10/03 14:33:15;;;;;;;5.80;4.70;;;;;;;;;;6223250;23;21376;-65
2023/10/03 14:35:43;;;;;;;5.13;3.90;;;;;;;;;;6222480;23;20610;-65